YTFD weather

Tenterfield Airport
Tenterfield, New South Wales, Australia

Public forecast

Using degrees Celsius for public forecast. Weather courtesy of forecast.io.

Closest aviation weather report (METAR) to Tenterfield Airport

Closest report is Casino Airport, 60.1 nm (111.3 km) E. Retrieved 2019/10/21 19:00 UTC (23 minutes ago):

YCAS 211900Z AUTO 28003KT //// // ////// 10/09 Q1024

Closest aviation forecast (TAF) to Tenterfield Airport

Closest forecast is RAAF Base Amberley, 91.0 nm (168.6 km) NNE. Retrieved 2019/10/21 18:00 UTC (1 hour ago):

TAF YAMB 211658Z 2118/2212 21005KT 9999 FEW025 FM212200 09012KT 9999 SCT040 FM221000 21005KT 9999 SCT030